sensor_id;sensor_type;location;lat;lon;timestamp;temperature;humidity
21176;DHT22;10746;50.178;8.186;2023-02-26T00:00:56;-2.60;99.90
21176;DHT22;10746;50.178;8.186;2023-02-26T00:03:23;-2.60;99.90
21176;DHT22;10746;50.178;8.186;2023-02-26T00:05:50;-2.60;99.90
21176;DHT22;10746;50.178;8.186;2023-02-26T00:08:16;-2.50;99.90
21176;DHT22;10746;50.178;8.186;2023-02-26T00:10:43;-2.40;99.90
21176;DHT22;10746;50.178;8.186;2023-02-26T00:13:12;-2.50;99.90
21176;DHT22;10746;50.178;8.186;2023-02-26T00:15:40;-2.50;99.90
21176;DHT22;10746;50.178;8.186;2023-02-26T00:18:10;-2.40;99.90
21176;DHT22;10746;50.178;8.186;2023-02-26T00:20:38;-2.30;99.90
21176;DHT22;10746;50.178;8.186;2023-02-26T00:23:07;-2.30;99.90
21176;DHT22;10746;50.178;8.186;2023-02-26T00:25:34;-2.20;99.90
21176;DHT22;10746;50.178;8.186;2023-02-26T00:28:02;-2.30;99.90
21176;DHT22;10746;50.178;8.186;2023-02-26T00:30:31;-2.20;99.90
21176;DHT22;10746;50.178;8.186;2023-02-26T00:32:58;-2.20;99.90
21176;DHT22;10746;50.178;8.186;2023-02-26T00:35:26;-2.20;99.90
21176;DHT22;10746;50.178;8.186;2023-02-26T00:37:59;-2.20;99.90
21176;DHT22;10746;50.178;8.186;2023-02-26T00:40:43;-2.20;99.90
21176;DHT22;10746;50.178;8.186;2023-02-26T00:43:14;-2.20;99.90
21176;DHT22;10746;50.178;8.186;2023-02-26T00:45:46;-2.20;99.90
21176;DHT22;10746;50.178;8.186;2023-02-26T00:48:34;-2.20;99.90
21176;DHT22;10746;50.178;8.186;2023-02-26T00:51:09;-2.20;99.90
21176;DHT22;10746;50.178;8.186;2023-02-26T00:53:45;-2.20;99.90
21176;DHT22;10746;50.178;8.186;2023-02-26T00:56:13;-2.10;99.90
21176;DHT22;10746;50.178;8.186;2023-02-26T00:58:39;-2.10;99.90
21176;DHT22;10746;50.178;8.186;2023-02-26T01:01:08;-2.00;99.90
21176;DHT22;10746;50.178;8.186;2023-02-26T01:03:35;-2.00;99.90
21176;DHT22;10746;50.178;8.186;2023-02-26T01:06:03;-2.00;99.90
21176;DHT22;10746;50.178;8.186;2023-02-26T01:08:33;-1.90;99.90
21176;DHT22;10746;50.178;8.186;2023-02-26T01:11:04;-1.80;99.90
21176;DHT22;10746;50.178;8.186;2023-02-26T01:13:31;-1.80;99.90
21176;DHT22;10746;50.178;8.186;2023-02-26T01:16:03;-1.80;99.90
21176;DHT22;10746;50.178;8.186;2023-02-26T01:18:37;-1.80;99.90
21176;DHT22;10746;50.178;8.186;2023-02-26T01:21:09;-1.80;99.90
21176;DHT22;10746;50.178;8.186;2023-02-26T01:23:43;-1.80;99.90
21176;DHT22;10746;50.178;8.186;2023-02-26T01:26:15;-1.70;99.90
21176;DHT22;10746;50.178;8.186;2023-02-26T01:28:45;-1.70;99.90
21176;DHT22;10746;50.178;8.186;2023-02-26T01:31:23;-1.70;99.90
21176;DHT22;10746;50.178;8.186;2023-02-26T01:33:56;-1.70;99.90
21176;DHT22;10746;50.178;8.186;2023-02-26T01:36:30;-1.70;99.90
21176;DHT22;10746;50.178;8.186;2023-02-26T01:39:03;-1.60;99.90
21176;DHT22;10746;50.178;8.186;2023-02-26T01:41:34;-1.60;99.90
21176;DHT22;10746;50.178;8.186;2023-02-26T01:44:09;-1.60;99.90
21176;DHT22;10746;50.178;8.186;2023-02-26T01:46:50;-1.60;99.90
21176;DHT22;10746;50.178;8.186;2023-02-26T01:49:21;-1.60;99.90
21176;DHT22;10746;50.178;8.186;2023-02-26T01:51:51;-1.50;99.90
21176;DHT22;10746;50.178;8.186;2023-02-26T01:54:19;-1.50;99.90
21176;DHT22;10746;50.178;8.186;2023-02-26T01:56:48;-1.60;99.90
21176;DHT22;10746;50.178;8.186;2023-02-26T01:59:17;-1.60;99.90
21176;DHT22;10746;50.178;8.186;2023-02-26T02:01:49;-1.60;99.90
21176;DHT22;10746;50.178;8.186;2023-02-26T02:04:16;-1.60;99.90
21176;DHT22;10746;50.178;8.186;2023-02-26T02:06:46;-1.70;99.90
21176;DHT22;10746;50.178;8.186;2023-02-26T02:09:13;-1.70;99.90
21176;DHT22;10746;50.178;8.186;2023-02-26T02:11:56;-1.80;99.90
21176;DHT22;10746;50.178;8.186;2023-02-26T02:14:32;-1.90;99.90
21176;DHT22;10746;50.178;8.186;2023-02-26T02:17:10;-1.90;99.90
21176;DHT22;10746;50.178;8.186;2023-02-26T02:20:08;-1.90;99.90
21176;DHT22;10746;50.178;8.186;2023-02-26T02:22:59;-1.90;99.90
21176;DHT22;10746;50.178;8.186;2023-02-26T02:25:38;-2.00;99.90
21176;DHT22;10746;50.178;8.186;2023-02-26T02:28:15;-2.00;99.90
21176;DHT22;10746;50.178;8.186;2023-02-26T02:30:55;-2.00;99.90
21176;DHT22;10746;50.178;8.186;2023-02-26T02:33:29;-2.00;99.90
21176;DHT22;10746;50.178;8.186;2023-02-26T02:36:01;-2.00;99.90
21176;DHT22;10746;50.178;8.186;2023-02-26T02:38:32;-2.00;99.90
21176;DHT22;10746;50.178;8.186;2023-02-26T02:41:05;-2.10;99.90
21176;DHT22;10746;50.178;8.186;2023-02-26T02:43:33;-2.10;99.90
21176;DHT22;10746;50.178;8.186;2023-02-26T02:46:04;-2.10;99.90
21176;DHT22;10746;50.178;8.186;2023-02-26T02:48:34;-2.10;99.90
21176;DHT22;10746;50.178;8.186;2023-02-26T02:51:05;-2.10;99.90
21176;DHT22;10746;50.178;8.186;2023-02-26T02:53:36;-2.10;99.90
21176;DHT22;10746;50.178;8.186;2023-02-26T02:56:11;-2.20;99.90
21176;DHT22;10746;50.178;8.186;2023-02-26T02:58:40;-2.20;99.90
21176;DHT22;10746;50.178;8.186;2023-02-26T03:01:13;-2.40;99.90
21176;DHT22;10746;50.178;8.186;2023-02-26T03:03:45;-2.50;99.90
21176;DHT22;10746;50.178;8.186;2023-02-26T03:06:15;-2.50;99.90
21176;DHT22;10746;50.178;8.186;2023-02-26T03:08:43;-2.70;99.90
21176;DHT22;10746;50.178;8.186;2023-02-26T03:11:10;-2.80;99.90
21176;DHT22;10746;50.178;8.186;2023-02-26T03:13:38;-2.80;99.90
21176;DHT22;10746;50.178;8.186;2023-02-26T03:16:16;-2.80;99.90
21176;DHT22;10746;50.178;8.186;2023-02-26T03:18:52;-2.80;99.90
21176;DHT22;10746;50.178;8.186;2023-02-26T03:21:25;-2.90;99.90
21176;DHT22;10746;50.178;8.186;2023-02-26T03:24:00;-3.00;99.90
21176;DHT22;10746;50.178;8.186;2023-02-26T03:26:33;-3.00;99.90
21176;DHT22;10746;50.178;8.186;2023-02-26T03:29:09;-3.00;99.90
21176;DHT22;10746;50.178;8.186;2023-02-26T03:31:45;-3.10;99.90
21176;DHT22;10746;50.178;8.186;2023-02-26T03:34:20;-3.10;99.90
21176;DHT22;10746;50.178;8.186;2023-02-26T03:36:53;-3.20;99.90
21176;DHT22;10746;50.178;8.186;2023-02-26T03:39:26;-3.20;99.90
21176;DHT22;10746;50.178;8.186;2023-02-26T03:41:57;-3.20;99.90
21176;DHT22;10746;50.178;8.186;2023-02-26T03:44:30;-3.30;99.90
21176;DHT22;10746;50.178;8.186;2023-02-26T03:47:02;-3.10;99.90
21176;DHT22;10746;50.178;8.186;2023-02-26T03:49:33;-3.00;99.90
21176;DHT22;10746;50.178;8.186;2023-02-26T03:52:02;-2.90;99.90
21176;DHT22;10746;50.178;8.186;2023-02-26T03:54:32;-2.90;99.90
21176;DHT22;10746;50.178;8.186;2023-02-26T03:57:00;-2.80;99.90
21176;DHT22;10746;50.178;8.186;2023-02-26T03:59:27;-2.80;99.90
21176;DHT22;10746;50.178;8.186;2023-02-26T04:02:00;-2.70;99.90
21176;DHT22;10746;50.178;8.186;2023-02-26T04:04:31;-2.70;99.90
21176;DHT22;10746;50.178;8.186;2023-02-26T04:06:59;-2.80;99.90
21176;DHT22;10746;50.178;8.186;2023-02-26T04:09:27;-2.90;99.90
21176;DHT22;10746;50.178;8.186;2023-02-26T04:11:55;-3.00;99.90
21176;DHT22;10746;50.178;8.186;2023-02-26T04:14:22;-3.00;99.90
21176;DHT22;10746;50.178;8.186;2023-02-26T04:16:49;-2.90;99.90
21176;DHT22;10746;50.178;8.186;2023-02-26T04:19:17;-2.80;99.90
21176;DHT22;10746;50.178;8.186;2023-02-26T04:21:44;-2.80;99.90
21176;DHT22;10746;50.178;8.186;2023-02-26T04:24:11;-2.70;99.90
21176;DHT22;10746;50.178;8.186;2023-02-26T04:26:38;-2.70;99.90
21176;DHT22;10746;50.178;8.186;2023-02-26T04:29:05;-2.60;99.90
21176;DHT22;10746;50.178;8.186;2023-02-26T04:31:31;-2.50;99.90
21176;DHT22;10746;50.178;8.186;2023-02-26T04:33:58;-2.60;99.90
21176;DHT22;10746;50.178;8.186;2023-02-26T04:36:26;-2.60;99.90
21176;DHT22;10746;50.178;8.186;2023-02-26T04:38:53;-2.50;99.90
21176;DHT22;10746;50.178;8.186;2023-02-26T04:41:20;-2.50;99.90
21176;DHT22;10746;50.178;8.186;2023-02-26T04:43:47;-2.60;99.90
21176;DHT22;10746;50.178;8.186;2023-02-26T04:46:14;-2.50;99.90
21176;DHT22;10746;50.178;8.186;2023-02-26T04:48:41;-2.50;99.90
21176;DHT22;10746;50.178;8.186;2023-02-26T04:51:07;-2.40;99.90
21176;DHT22;10746;50.178;8.186;2023-02-26T04:53:36;-2.50;99.90
21176;DHT22;10746;50.178;8.186;2023-02-26T04:56:02;-2.50;99.90
21176;DHT22;10746;50.178;8.186;2023-02-26T04:58:29;-2.60;99.90
21176;DHT22;10746;50.178;8.186;2023-02-26T05:00:56;-2.70;99.90
21176;DHT22;10746;50.178;8.186;2023-02-26T05:03:23;-2.80;99.90
21176;DHT22;10746;50.178;8.186;2023-02-26T05:05:50;-2.80;99.90
21176;DHT22;10746;50.178;8.186;2023-02-26T05:08:17;-2.80;99.90
21176;DHT22;10746;50.178;8.186;2023-02-26T05:10:45;-2.70;99.90
21176;DHT22;10746;50.178;8.186;2023-02-26T05:13:12;-2.70;99.90
21176;DHT22;10746;50.178;8.186;2023-02-26T05:15:39;-2.70;99.90
21176;DHT22;10746;50.178;8.186;2023-02-26T05:18:06;-2.60;99.90
21176;DHT22;10746;50.178;8.186;2023-02-26T05:20:32;-2.60;99.90
21176;DHT22;10746;50.178;8.186;2023-02-26T05:22:59;-2.60;99.90
21176;DHT22;10746;50.178;8.186;2023-02-26T05:25:26;-2.60;99.90
21176;DHT22;10746;50.178;8.186;2023-02-26T05:27:54;-2.50;99.90
21176;DHT22;10746;50.178;8.186;2023-02-26T05:30:21;-2.50;99.90
21176;DHT22;10746;50.178;8.186;2023-02-26T05:32:48;-2.50;99.90
21176;DHT22;10746;50.178;8.186;2023-02-26T05:35:15;-2.50;99.90
21176;DHT22;10746;50.178;8.186;2023-02-26T05:37:42;-2.50;99.90
21176;DHT22;10746;50.178;8.186;2023-02-26T05:40:10;-2.60;99.90
21176;DHT22;10746;50.178;8.186;2023-02-26T05:42:37;-2.60;99.90
21176;DHT22;10746;50.178;8.186;2023-02-26T05:45:07;-2.60;99.90
21176;DHT22;10746;50.178;8.186;2023-02-26T05:47:34;-2.70;99.90
21176;DHT22;10746;50.178;8.186;2023-02-26T05:50:02;-2.70;99.90
21176;DHT22;10746;50.178;8.186;2023-02-26T05:52:28;-2.70;99.90
21176;DHT22;10746;50.178;8.186;2023-02-26T05:54:55;-2.60;99.90
21176;DHT22;10746;50.178;8.186;2023-02-26T05:57:23;-2.60;99.90
21176;DHT22;10746;50.178;8.186;2023-02-26T05:59:50;-2.60;99.90
21176;DHT22;10746;50.178;8.186;2023-02-26T06:02:18;-2.70;99.90
21176;DHT22;10746;50.178;8.186;2023-02-26T06:04:45;-2.70;99.90
21176;DHT22;10746;50.178;8.186;2023-02-26T06:07:12;-2.70;99.90
21176;DHT22;10746;50.178;8.186;2023-02-26T06:09:38;-2.70;99.90
21176;DHT22;10746;50.178;8.186;2023-02-26T06:12:06;-2.70;99.90
21176;DHT22;10746;50.178;8.186;2023-02-26T06:14:33;-2.80;99.90
21176;DHT22;10746;50.178;8.186;2023-02-26T06:17:00;-2.80;99.90
21176;DHT22;10746;50.178;8.186;2023-02-26T06:19:28;-2.90;99.90
21176;DHT22;10746;50.178;8.186;2023-02-26T06:21:55;-2.90;99.90
21176;DHT22;10746;50.178;8.186;2023-02-26T06:24:22;-2.90;99.90
21176;DHT22;10746;50.178;8.186;2023-02-26T06:26:48;-2.90;99.90
21176;DHT22;10746;50.178;8.186;2023-02-26T06:29:15;-2.90;99.90
21176;DHT22;10746;50.178;8.186;2023-02-26T06:31:45;-2.80;99.90
21176;DHT22;10746;50.178;8.186;2023-02-26T06:34:11;-2.80;99.90
21176;DHT22;10746;50.178;8.186;2023-02-26T06:36:40;-2.80;99.90
21176;DHT22;10746;50.178;8.186;2023-02-26T06:39:06;-2.80;99.90
21176;DHT22;10746;50.178;8.186;2023-02-26T06:41:33;-2.70;99.90
21176;DHT22;10746;50.178;8.186;2023-02-26T06:44:00;-2.70;99.90
21176;DHT22;10746;50.178;8.186;2023-02-26T06:46:27;-2.60;99.90
21176;DHT22;10746;50.178;8.186;2023-02-26T06:48:54;-2.70;99.90
21176;DHT22;10746;50.178;8.186;2023-02-26T06:51:20;-2.80;99.90
21176;DHT22;10746;50.178;8.186;2023-02-26T06:53:49;-2.80;99.90
21176;DHT22;10746;50.178;8.186;2023-02-26T06:56:15;-2.80;99.90
21176;DHT22;10746;50.178;8.186;2023-02-26T06:58:42;-2.70;99.90
21176;DHT22;10746;50.178;8.186;2023-02-26T07:01:09;-2.70;99.90
21176;DHT22;10746;50.178;8.186;2023-02-26T07:03:36;-2.60;99.90
21176;DHT22;10746;50.178;8.186;2023-02-26T07:06:03;-2.60;99.90
21176;DHT22;10746;50.178;8.186;2023-02-26T07:08:32;-2.60;99.90
21176;DHT22;10746;50.178;8.186;2023-02-26T07:11:00;-2.50;99.90
21176;DHT22;10746;50.178;8.186;2023-02-26T07:13:27;-2.50;99.90
21176;DHT22;10746;50.178;8.186;2023-02-26T07:15:53;-2.50;99.90
21176;DHT22;10746;50.178;8.186;2023-02-26T07:18:20;-2.40;99.90
21176;DHT22;10746;50.178;8.186;2023-02-26T07:20:48;-2.40;99.90
21176;DHT22;10746;50.178;8.186;2023-02-26T07:23:15;-2.40;99.90
21176;DHT22;10746;50.178;8.186;2023-02-26T07:25:42;-2.50;99.90
21176;DHT22;10746;50.178;8.186;2023-02-26T07:28:10;-2.50;99.90
21176;DHT22;10746;50.178;8.186;2023-02-26T07:30:37;-2.50;99.90
21176;DHT22;10746;50.178;8.186;2023-02-26T07:33:06;-2.40;99.90
21176;DHT22;10746;50.178;8.186;2023-02-26T07:35:33;-2.40;99.90
21176;DHT22;10746;50.178;8.186;2023-02-26T07:38:00;-2.40;99.90
21176;DHT22;10746;50.178;8.186;2023-02-26T07:40:26;-2.40;99.90
21176;DHT22;10746;50.178;8.186;2023-02-26T07:42:53;-2.20;99.90
21176;DHT22;10746;50.178;8.186;2023-02-26T07:45:22;-2.10;99.90
21176;DHT22;10746;50.178;8.186;2023-02-26T07:47:50;-2.00;99.90
21176;DHT22;10746;50.178;8.186;2023-02-26T07:50:17;-1.80;99.90
21176;DHT22;10746;50.178;8.186;2023-02-26T07:52:45;-1.60;99.90
21176;DHT22;10746;50.178;8.186;2023-02-26T07:55:12;-1.40;99.90
21176;DHT22;10746;50.178;8.186;2023-02-26T07:57:39;-1.30;99.90
21176;DHT22;10746;50.178;8.186;2023-02-26T08:00:07;-1.10;99.90
21176;DHT22;10746;50.178;8.186;2023-02-26T08:02:35;-0.80;99.90
21176;DHT22;10746;50.178;8.186;2023-02-26T08:05:02;-0.80;99.90
21176;DHT22;10746;50.178;8.186;2023-02-26T08:07:29;-0.90;99.90
21176;DHT22;10746;50.178;8.186;2023-02-26T08:09:56;-0.90;99.90
21176;DHT22;10746;50.178;8.186;2023-02-26T08:12:23;-1.00;99.90
21176;DHT22;10746;50.178;8.186;2023-02-26T08:14:50;-1.20;99.90
21176;DHT22;10746;50.178;8.186;2023-02-26T08:17:17;-1.30;99.90
21176;DHT22;10746;50.178;8.186;2023-02-26T08:19:45;-1.30;99.90
21176;DHT22;10746;50.178;8.186;2023-02-26T08:22:12;-1.40;99.90
21176;DHT22;10746;50.178;8.186;2023-02-26T08:24:39;-1.60;99.90
21176;DHT22;10746;50.178;8.186;2023-02-26T08:27:06;-1.60;99.90
21176;DHT22;10746;50.178;8.186;2023-02-26T08:29:33;-1.60;99.90
21176;DHT22;10746;50.178;8.186;2023-02-26T08:32:00;-1.70;99.90
21176;DHT22;10746;50.178;8.186;2023-02-26T08:34:26;-1.60;99.90
21176;DHT22;10746;50.178;8.186;2023-02-26T08:36:55;-1.70;99.90
21176;DHT22;10746;50.178;8.186;2023-02-26T08:39:21;-1.70;99.90
21176;DHT22;10746;50.178;8.186;2023-02-26T08:41:48;-1.70;99.90
21176;DHT22;10746;50.178;8.186;2023-02-26T08:44:15;-1.70;99.90
21176;DHT22;10746;50.178;8.186;2023-02-26T08:46:42;-1.60;99.90
21176;DHT22;10746;50.178;8.186;2023-02-26T08:49:09;-1.50;99.90
21176;DHT22;10746;50.178;8.186;2023-02-26T08:51:35;-1.30;99.90
21176;DHT22;10746;50.178;8.186;2023-02-26T08:54:04;-1.30;99.90
21176;DHT22;10746;50.178;8.186;2023-02-26T08:56:30;-1.30;99.90
21176;DHT22;10746;50.178;8.186;2023-02-26T08:58:57;-1.30;99.90
21176;DHT22;10746;50.178;8.186;2023-02-26T09:01:24;-1.10;99.90
21176;DHT22;10746;50.178;8.186;2023-02-26T09:03:51;-1.30;99.90
21176;DHT22;10746;50.178;8.186;2023-02-26T09:06:17;-1.20;99.90
21176;DHT22;10746;50.178;8.186;2023-02-26T09:08:44;-1.10;99.90
21176;DHT22;10746;50.178;8.186;2023-02-26T09:11:12;-0.70;99.90
21176;DHT22;10746;50.178;8.186;2023-02-26T09:13:39;-0.70;99.90
21176;DHT22;10746;50.178;8.186;2023-02-26T09:16:06;-0.80;99.90
21176;DHT22;10746;50.178;8.186;2023-02-26T09:18:33;-1.10;99.90
21176;DHT22;10746;50.178;8.186;2023-02-26T09:21:00;-0.90;99.90
21176;DHT22;10746;50.178;8.186;2023-02-26T09:23:27;-0.60;99.90
21176;DHT22;10746;50.178;8.186;2023-02-26T09:25:55;-0.20;99.90
21176;DHT22;10746;50.178;8.186;2023-02-26T09:28:24;-0.20;99.90
21176;DHT22;10746;50.178;8.186;2023-02-26T09:30:51;-0.20;99.90
21176;DHT22;10746;50.178;8.186;2023-02-26T09:33:18;0.00;99.90
21176;DHT22;10746;50.178;8.186;2023-02-26T09:35:46;0.30;99.90
21176;DHT22;10746;50.178;8.186;2023-02-26T09:38:14;0.30;99.90
21176;DHT22;10746;50.178;8.186;2023-02-26T09:40:45;0.50;99.90
21176;DHT22;10746;50.178;8.186;2023-02-26T09:43:40;0.50;99.90
21176;DHT22;10746;50.178;8.186;2023-02-26T09:46:23;0.60;99.90
21176;DHT22;10746;50.178;8.186;2023-02-26T09:48:59;0.60;99.90
21176;DHT22;10746;50.178;8.186;2023-02-26T09:51:30;1.20;99.90
21176;DHT22;10746;50.178;8.186;2023-02-26T09:53:59;1.70;99.90
21176;DHT22;10746;50.178;8.186;2023-02-26T09:56:32;1.90;99.90
21176;DHT22;10746;50.178;8.186;2023-02-26T09:59:02;2.30;99.90
21176;DHT22;10746;50.178;8.186;2023-02-26T10:01:34;2.40;99.90
21176;DHT22;10746;50.178;8.186;2023-02-26T10:04:13;2.20;99.90
21176;DHT22;10746;50.178;8.186;2023-02-26T10:06:55;1.50;99.90
21176;DHT22;10746;50.178;8.186;2023-02-26T10:09:39;1.00;99.90
21176;DHT22;10746;50.178;8.186;2023-02-26T10:12:10;0.60;99.90
21176;DHT22;10746;50.178;8.186;2023-02-26T10:14:43;0.40;99.90
21176;DHT22;10746;50.178;8.186;2023-02-26T10:17:15;0.30;99.90
21176;DHT22;10746;50.178;8.186;2023-02-26T10:19:46;0.30;99.90
21176;DHT22;10746;50.178;8.186;2023-02-26T10:22:18;0.40;99.90
21176;DHT22;10746;50.178;8.186;2023-02-26T10:24:49;0.20;99.90
21176;DHT22;10746;50.178;8.186;2023-02-26T10:27:20;0.70;99.90
21176;DHT22;10746;50.178;8.186;2023-02-26T10:29:55;0.40;99.90
21176;DHT22;10746;50.178;8.186;2023-02-26T10:32:27;0.40;99.90
21176;DHT22;10746;50.178;8.186;2023-02-26T10:34:57;0.30;99.90
21176;DHT22;10746;50.178;8.186;2023-02-26T10:37:35;0.30;99.90
21176;DHT22;10746;50.178;8.186;2023-02-26T10:40:12;0.80;99.90
21176;DHT22;10746;50.178;8.186;2023-02-26T10:42:42;0.60;99.90
21176;DHT22;10746;50.178;8.186;2023-02-26T10:45:22;0.70;99.90
21176;DHT22;10746;50.178;8.186;2023-02-26T10:48:00;0.70;99.90
21176;DHT22;10746;50.178;8.186;2023-02-26T10:50:30;0.90;99.90
21176;DHT22;10746;50.178;8.186;2023-02-26T10:52:57;1.00;99.90
21176;DHT22;10746;50.178;8.186;2023-02-26T10:55:38;0.60;99.90
21176;DHT22;10746;50.178;8.186;2023-02-26T10:58:11;0.30;99.90
21176;DHT22;10746;50.178;8.186;2023-02-26T11:00:41;1.00;99.90
21176;DHT22;10746;50.178;8.186;2023-02-26T11:03:14;2.20;99.90
21176;DHT22;10746;50.178;8.186;2023-02-26T11:05:42;2.10;99.90
21176;DHT22;10746;50.178;8.186;2023-02-26T11:08:12;1.90;99.90
21176;DHT22;10746;50.178;8.186;2023-02-26T11:10:44;1.70;99.90
21176;DHT22;10746;50.178;8.186;2023-02-26T11:13:12;1.40;99.90
21176;DHT22;10746;50.178;8.186;2023-02-26T11:15:41;1.10;99.90
21176;DHT22;10746;50.178;8.186;2023-02-26T11:18:13;1.00;99.90
21176;DHT22;10746;50.178;8.186;2023-02-26T11:20:44;0.70;99.90
21176;DHT22;10746;50.178;8.186;2023-02-26T11:23:12;0.80;99.90
21176;DHT22;10746;50.178;8.186;2023-02-26T11:25:40;0.80;99.90
21176;DHT22;10746;50.178;8.186;2023-02-26T11:28:20;1.30;99.90
21176;DHT22;10746;50.178;8.186;2023-02-26T11:30:51;2.00;99.90
21176;DHT22;10746;50.178;8.186;2023-02-26T11:33:22;2.50;99.90
21176;DHT22;10746;50.178;8.186;2023-02-26T11:35:50;3.00;99.90
21176;DHT22;10746;50.178;8.186;2023-02-26T11:38:20;3.30;99.90
21176;DHT22;10746;50.178;8.186;2023-02-26T11:40:50;2.60;99.90
21176;DHT22;10746;50.178;8.186;2023-02-26T11:43:21;2.50;99.90
21176;DHT22;10746;50.178;8.186;2023-02-26T11:45:52;3.00;99.90
21176;DHT22;10746;50.178;8.186;2023-02-26T11:48:23;3.00;99.90
21176;DHT22;10746;50.178;8.186;2023-02-26T11:50:53;3.00;99.90
21176;DHT22;10746;50.178;8.186;2023-02-26T11:53:24;3.70;99.90
21176;DHT22;10746;50.178;8.186;2023-02-26T11:55:58;3.90;99.90
21176;DHT22;10746;50.178;8.186;2023-02-26T11:58:28;4.00;99.90
21176;DHT22;10746;50.178;8.186;2023-02-26T12:00:58;4.50;99.90
21176;DHT22;10746;50.178;8.186;2023-02-26T12:03:28;4.30;99.90
21176;DHT22;10746;50.178;8.186;2023-02-26T12:05:57;4.10;99.90
21176;DHT22;10746;50.178;8.186;2023-02-26T12:08:28;4.60;99.90
21176;DHT22;10746;50.178;8.186;2023-02-26T12:11:05;5.00;99.90
21176;DHT22;10746;50.178;8.186;2023-02-26T12:13:37;5.00;99.90
21176;DHT22;10746;50.178;8.186;2023-02-26T12:16:16;4.90;99.90
21176;DHT22;10746;50.178;8.186;2023-02-26T12:18:58;3.70;99.90
21176;DHT22;10746;50.178;8.186;2023-02-26T12:21:51;2.90;99.90
21176;DHT22;10746;50.178;8.186;2023-02-26T12:27:41;3.70;99.90
21176;DHT22;10746;50.178;8.186;2023-02-26T12:30:26;3.90;99.90
21176;DHT22;10746;50.178;8.186;2023-02-26T12:33:09;2.70;99.90
21176;DHT22;10746;50.178;8.186;2023-02-26T12:35:49;1.80;99.90
21176;DHT22;10746;50.178;8.186;2023-02-26T12:38:27;1.50;99.90
21176;DHT22;10746;50.178;8.186;2023-02-26T12:41:16;1.30;99.90
21176;DHT22;10746;50.178;8.186;2023-02-26T12:43:47;1.60;99.90
21176;DHT22;10746;50.178;8.186;2023-02-26T12:46:23;2.10;99.90
21176;DHT22;10746;50.178;8.186;2023-02-26T12:49:07;2.00;99.90
21176;DHT22;10746;50.178;8.186;2023-02-26T12:52:00;1.90;99.90
21176;DHT22;10746;50.178;8.186;2023-02-26T12:54:59;1.80;99.90
21176;DHT22;10746;50.178;8.186;2023-02-26T12:57:49;1.50;99.90
21176;DHT22;10746;50.178;8.186;2023-02-26T13:00:34;1.60;99.90
21176;DHT22;10746;50.178;8.186;2023-02-26T13:03:22;2.30;99.90
21176;DHT22;10746;50.178;8.186;2023-02-26T13:06:13;3.10;99.90
21176;DHT22;10746;50.178;8.186;2023-02-26T13:08:49;3.50;99.90
21176;DHT22;10746;50.178;8.186;2023-02-26T13:11:26;2.90;99.90
21176;DHT22;10746;50.178;8.186;2023-02-26T13:14:10;2.30;99.90
21176;DHT22;10746;50.178;8.186;2023-02-26T13:16:46;2.10;99.90
21176;DHT22;10746;50.178;8.186;2023-02-26T13:19:23;2.10;99.90
21176;DHT22;10746;50.178;8.186;2023-02-26T13:21:57;2.00;99.90
21176;DHT22;10746;50.178;8.186;2023-02-26T13:24:30;1.50;99.90
21176;DHT22;10746;50.178;8.186;2023-02-26T13:27:01;1.40;99.90
21176;DHT22;10746;50.178;8.186;2023-02-26T13:29:34;1.40;99.90
21176;DHT22;10746;50.178;8.186;2023-02-26T13:32:05;1.60;99.90
21176;DHT22;10746;50.178;8.186;2023-02-26T13:34:41;1.40;99.90
21176;DHT22;10746;50.178;8.186;2023-02-26T13:37:19;1.30;99.90
21176;DHT22;10746;50.178;8.186;2023-02-26T13:39:53;1.40;99.90
21176;DHT22;10746;50.178;8.186;2023-02-26T13:42:28;1.30;99.90
21176;DHT22;10746;50.178;8.186;2023-02-26T13:48:06;1.10;99.90
21176;DHT22;10746;50.178;8.186;2023-02-26T13:50:42;1.00;99.90
21176;DHT22;10746;50.178;8.186;2023-02-26T13:53:41;1.00;99.90
21176;DHT22;10746;50.178;8.186;2023-02-26T13:56:14;1.20;99.90
21176;DHT22;10746;50.178;8.186;2023-02-26T13:58:43;1.10;99.90
21176;DHT22;10746;50.178;8.186;2023-02-26T14:01:16;1.10;99.90
21176;DHT22;10746;50.178;8.186;2023-02-26T14:03:49;1.00;99.90
21176;DHT22;10746;50.178;8.186;2023-02-26T14:06:36;1.10;99.90
21176;DHT22;10746;50.178;8.186;2023-02-26T14:09:29;1.00;99.90
21176;DHT22;10746;50.178;8.186;2023-02-26T14:11:58;1.10;99.90
21176;DHT22;10746;50.178;8.186;2023-02-26T14:14:33;1.40;99.90
21176;DHT22;10746;50.178;8.186;2023-02-26T14:17:27;1.50;99.90
21176;DHT22;10746;50.178;8.186;2023-02-26T14:20:28;1.50;99.90
21176;DHT22;10746;50.178;8.186;2023-02-26T14:23:31;1.40;99.90
21176;DHT22;10746;50.178;8.186;2023-02-26T14:26:10;1.20;99.90
21176;DHT22;10746;50.178;8.186;2023-02-26T14:28:55;1.10;99.90
21176;DHT22;10746;50.178;8.186;2023-02-26T14:31:23;1.30;99.90
21176;DHT22;10746;50.178;8.186;2023-02-26T14:34:07;2.20;99.90
21176;DHT22;10746;50.178;8.186;2023-02-26T14:36:38;3.30;99.90
21176;DHT22;10746;50.178;8.186;2023-02-26T14:39:12;3.80;99.90
21176;DHT22;10746;50.178;8.186;2023-02-26T14:41:44;3.70;99.90
21176;DHT22;10746;50.178;8.186;2023-02-26T14:44:14;2.70;99.90
21176;DHT22;10746;50.178;8.186;2023-02-26T14:46:42;2.10;99.90
21176;DHT22;10746;50.178;8.186;2023-02-26T14:49:16;1.90;99.90
21176;DHT22;10746;50.178;8.186;2023-02-26T14:51:53;1.70;99.90
21176;DHT22;10746;50.178;8.186;2023-02-26T14:54:37;1.60;99.90
21176;DHT22;10746;50.178;8.186;2023-02-26T14:57:16;1.50;99.90
21176;DHT22;10746;50.178;8.186;2023-02-26T14:59:57;1.10;99.90
21176;DHT22;10746;50.178;8.186;2023-02-26T15:02:29;0.90;99.90
21176;DHT22;10746;50.178;8.186;2023-02-26T15:05:16;0.80;99.90
21176;DHT22;10746;50.178;8.186;2023-02-26T15:10:49;0.70;99.90
21176;DHT22;10746;50.178;8.186;2023-02-26T15:13:36;0.80;99.90
21176;DHT22;10746;50.178;8.186;2023-02-26T15:16:14;1.00;99.90
21176;DHT22;10746;50.178;8.186;2023-02-26T15:19:13;1.20;99.90
21176;DHT22;10746;50.178;8.186;2023-02-26T15:21:50;1.30;99.90
21176;DHT22;10746;50.178;8.186;2023-02-26T15:24:21;1.30;99.90
21176;DHT22;10746;50.178;8.186;2023-02-26T15:26:50;1.30;99.90
21176;DHT22;10746;50.178;8.186;2023-02-26T15:29:22;1.20;99.90
21176;DHT22;10746;50.178;8.186;2023-02-26T15:31:54;1.10;99.90
21176;DHT22;10746;50.178;8.186;2023-02-26T15:34:21;1.00;99.90
21176;DHT22;10746;50.178;8.186;2023-02-26T15:36:50;1.00;99.90
21176;DHT22;10746;50.178;8.186;2023-02-26T15:39:18;0.90;99.90
21176;DHT22;10746;50.178;8.186;2023-02-26T15:41:46;1.00;99.90
21176;DHT22;10746;50.178;8.186;2023-02-26T15:44:16;0.90;99.90
21176;DHT22;10746;50.178;8.186;2023-02-26T15:46:51;0.70;99.90
21176;DHT22;10746;50.178;8.186;2023-02-26T15:49:23;0.60;99.90
21176;DHT22;10746;50.178;8.186;2023-02-26T15:51:51;0.50;99.90
21176;DHT22;10746;50.178;8.186;2023-02-26T15:54:22;0.40;99.90
21176;DHT22;10746;50.178;8.186;2023-02-26T15:56:49;0.40;99.90
21176;DHT22;10746;50.178;8.186;2023-02-26T15:59:20;0.40;99.90
21176;DHT22;10746;50.178;8.186;2023-02-26T16:01:48;0.50;99.90
21176;DHT22;10746;50.178;8.186;2023-02-26T16:04:17;0.40;99.90
21176;DHT22;10746;50.178;8.186;2023-02-26T16:06:46;0.40;99.90
21176;DHT22;10746;50.178;8.186;2023-02-26T16:09:18;0.30;99.90
21176;DHT22;10746;50.178;8.186;2023-02-26T16:11:46;0.30;99.90
21176;DHT22;10746;50.178;8.186;2023-02-26T16:14:19;0.30;99.90